createdAt,value
2018-11-23T00:00:01.413Z,28.90
2018-11-23T00:02:29.707Z,27.47
2018-11-23T00:04:57.944Z,30.60
2018-11-23T00:07:26.266Z,29.97
2018-11-23T00:09:54.585Z,26.53
2018-11-23T00:12:22.970Z,28.63
2018-11-23T00:14:51.310Z,25.80
2018-11-23T00:17:19.580Z,28.43
2018-11-23T00:19:47.870Z,27.77
2018-11-23T00:22:16.113Z,26.77
2018-11-23T00:24:44.446Z,26.57
2018-11-23T00:27:12.692Z,28.63
2018-11-23T00:29:40.987Z,30.37
2018-11-23T00:32:09.310Z,27.90
2018-11-23T00:34:37.706Z,27.23
2018-11-23T00:37:06.066Z,27.07
2018-11-23T00:39:34.412Z,27.60
2018-11-23T00:42:02.662Z,25.10
2018-11-23T00:44:30.940Z,25.17
2018-11-23T00:46:59.223Z,24.60
2018-11-23T00:49:27.520Z,26.50
2018-11-23T00:51:55.793Z,26.77
2018-11-23T00:54:24.082Z,29.27
2018-11-23T00:56:52.366Z,28.03
2018-11-23T00:59:20.650Z,27.50
2018-11-23T01:01:54.296Z,30.77
2018-11-23T01:04:22.640Z,32.30
2018-11-23T01:06:51.056Z,31.37
2018-11-23T01:09:20.384Z,32.30
2018-11-23T01:11:49.747Z,33.07
2018-11-23T01:14:18.010Z,38.17
2018-11-23T01:16:46.395Z,40.63
2018-11-23T01:19:14.714Z,38.50
2018-11-23T01:21:43.094Z,36.40
2018-11-23T01:24:11.374Z,35.20
2018-11-23T01:26:39.680Z,32.53
2018-11-23T01:29:07.987Z,31.90
2018-11-23T01:31:36.347Z,33.47
2018-11-23T01:34:04.676Z,32.93
2018-11-23T01:36:33.017Z,35.30
2018-11-23T01:39:01.266Z,33.23
2018-11-23T01:41:29.592Z,35.20
2018-11-23T01:43:57.839Z,38.80
2018-11-23T01:46:26.126Z,39.47
2018-11-23T01:48:54.419Z,36.87
2018-11-23T01:51:22.676Z,39.13
2018-11-23T01:53:50.937Z,39.63
2018-11-23T01:56:19.237Z,41.68
2018-11-23T01:58:47.499Z,40.07
2018-11-23T02:01:15.837Z,41.53
2018-11-23T02:03:44.117Z,35.87
2018-11-23T02:06:12.388Z,33.73
2018-11-23T02:08:40.625Z,31.97
2018-11-23T02:11:08.938Z,33.20
2018-11-23T02:13:37.219Z,34.13
2018-11-23T02:16:05.483Z,28.90
2018-11-23T02:18:33.779Z,29.67
2018-11-23T02:21:02.032Z,31.45
2018-11-23T02:23:30.446Z,30.13
2018-11-23T02:25:58.745Z,31.03
2018-11-23T02:28:27.019Z,28.70
2018-11-23T02:30:55.299Z,28.40
2018-11-23T02:33:23.575Z,30.43
2018-11-23T02:35:51.955Z,28.47
2018-11-23T02:38:20.217Z,27.40
2018-11-23T02:40:48.523Z,27.37
2018-11-23T02:43:16.772Z,29.57
2018-11-23T02:45:45.102Z,25.97
2018-11-23T02:48:13.373Z,26.70
2018-11-23T02:50:41.677Z,27.93
2018-11-23T02:53:09.946Z,24.80
2018-11-23T02:55:38.283Z,27.35
2018-11-23T02:58:06.536Z,24.57
2018-11-23T03:00:34.917Z,24.47
2018-11-23T03:03:03.229Z,26.07
2018-11-23T03:05:31.558Z,25.40
2018-11-23T03:07:59.830Z,24.00
2018-11-23T03:10:28.169Z,25.27
2018-11-23T03:12:56.480Z,24.98
2018-11-23T03:15:24.857Z,24.93
2018-11-23T03:17:53.162Z,24.32
2018-11-23T03:20:22.407Z,25.20
2018-11-23T03:22:50.721Z,25.30
2018-11-23T03:25:19.006Z,23.60
2018-11-23T03:27:47.282Z,26.80
2018-11-23T03:30:17.752Z,23.25
2018-11-23T03:32:46.965Z,24.95
2018-11-23T03:35:15.384Z,26.27
2018-11-23T03:37:44.925Z,29.55
2018-11-23T03:40:12.479Z,27.73
2018-11-23T03:42:40.852Z,31.50
2018-11-23T03:45:10.503Z,31.77
2018-11-23T03:47:39.099Z,33.02
2018-11-23T03:50:08.283Z,34.15
2018-11-23T03:52:36.661Z,31.02
2018-11-23T03:55:05.110Z,32.55
2018-11-23T03:57:33.473Z,33.73
2018-11-23T04:00:01.779Z,30.52
2018-11-23T04:02:30.074Z,27.52
2018-11-23T04:04:58.544Z,36.15
2018-11-23T04:07:26.829Z,34.50
2018-11-23T04:09:55.209Z,32.53
2018-11-23T04:12:23.514Z,34.35
2018-11-23T04:14:51.831Z,30.70
2018-11-23T04:17:20.138Z,34.85
2018-11-23T04:19:48.489Z,37.17
2018-11-23T04:22:16.798Z,30.70
2018-11-23T04:24:45.079Z,34.75
2018-11-23T04:27:13.374Z,35.78
2018-11-23T04:29:41.634Z,36.45
2018-11-23T04:32:10.028Z,39.63
2018-11-23T04:34:38.299Z,38.63
2018-11-23T04:37:06.743Z,37.80
2018-11-23T04:39:35.047Z,38.95
2018-11-23T04:42:04.008Z,37.95
2018-11-23T04:44:32.248Z,39.88
2018-11-23T04:47:06.957Z,36.63
2018-11-23T04:49:35.258Z,36.90
2018-11-23T04:52:03.591Z,36.50
2018-11-23T04:54:31.909Z,34.30
2018-11-23T04:57:00.214Z,32.20
2018-11-23T04:59:28.559Z,30.12
2018-11-23T05:01:56.839Z,29.70
2018-11-23T05:04:25.148Z,27.27
2018-11-23T05:06:53.491Z,24.95
2018-11-23T05:09:21.758Z,27.45
2018-11-23T05:11:50.334Z,74.12
2018-11-23T05:14:18.367Z,51.53
2018-11-23T05:16:46.636Z,39.58
2018-11-23T05:19:14.916Z,38.67
2018-11-23T05:21:43.210Z,41.28
2018-11-23T05:24:11.597Z,33.33
2018-11-23T05:26:39.994Z,34.40
2018-11-23T05:29:08.280Z,36.40
2018-11-23T05:31:36.631Z,31.05
2018-11-23T05:34:04.961Z,30.30
2018-11-23T05:36:33.265Z,26.70
2018-11-23T05:39:01.648Z,28.55
2018-11-23T05:41:29.921Z,26.37
2018-11-23T05:43:58.263Z,26.42
2018-11-23T05:46:26.531Z,30.27
2018-11-23T05:48:54.863Z,30.00
2018-11-23T05:51:23.078Z,28.15
2018-11-23T05:53:51.386Z,26.93
2018-11-23T05:56:19.642Z,25.20
2018-11-23T05:58:47.934Z,27.37
2018-11-23T06:01:16.202Z,26.87
2018-11-23T06:03:44.488Z,26.62
2018-11-23T06:06:12.781Z,31.83
2018-11-23T06:08:41.210Z,27.67
2018-11-23T06:11:09.506Z,23.52
2018-11-23T06:13:37.787Z,25.70
2018-11-23T06:16:06.049Z,23.47
2018-11-23T06:18:34.322Z,23.15
2018-11-23T06:21:02.595Z,24.05
2018-11-23T06:23:30.880Z,25.32
2018-11-23T06:26:06.796Z,23.40
2018-11-23T06:28:35.163Z,25.60
2018-11-23T06:31:03.449Z,24.67
2018-11-23T06:33:34.015Z,26.52
2018-11-23T06:36:02.305Z,25.68
2018-11-23T06:38:30.620Z,25.88
2018-11-23T06:40:59.448Z,24.12
2018-11-23T06:43:27.419Z,25.45
2018-11-23T06:45:56.403Z,21.17
2018-11-23T06:48:24.746Z,23.07
2018-11-23T06:50:53.214Z,25.25
2018-11-23T06:53:21.504Z,24.75
2018-11-23T06:55:49.822Z,24.35
2018-11-23T06:58:18.099Z,24.90
2018-11-23T07:00:46.405Z,25.00
2018-11-23T07:03:14.723Z,22.77
2018-11-23T07:05:42.994Z,27.07
2018-11-23T07:08:12.195Z,25.02
2018-11-23T07:10:40.508Z,27.17
2018-11-23T07:13:09.277Z,25.30
2018-11-23T07:15:37.968Z,24.07
2018-11-23T07:18:06.295Z,25.60
2018-11-23T07:20:34.765Z,26.37
2018-11-23T07:23:03.059Z,26.12
2018-11-23T07:25:31.326Z,26.27
2018-11-23T07:27:59.611Z,22.80
2018-11-23T07:30:29.353Z,24.75
2018-11-23T07:32:57.711Z,25.70
2018-11-23T07:35:26.008Z,25.77
2018-11-23T07:37:54.333Z,23.33
2018-11-23T07:40:37.934Z,25.32
2018-11-23T07:43:06.233Z,25.85
2018-11-23T07:45:34.568Z,25.17
2018-11-23T07:48:02.857Z,26.80
2018-11-23T07:50:31.130Z,25.80
2018-11-23T07:52:59.415Z,25.50
2018-11-23T07:55:27.751Z,26.85
2018-11-23T07:57:56.003Z,26.40
2018-11-23T08:00:25.253Z,26.52
2018-11-23T08:02:53.570Z,27.20
2018-11-23T08:05:22.230Z,27.80
2018-11-23T08:07:50.536Z,25.95
2018-11-23T08:10:18.083Z,27.90
2018-11-23T08:12:48.592Z,31.10
2018-11-23T08:15:19.048Z,31.37
2018-11-23T08:17:47.351Z,33.83
2018-11-23T08:20:16.978Z,26.57
2018-11-23T08:22:45.250Z,28.23
2018-11-23T08:25:14.729Z,25.90
2018-11-23T08:27:43.751Z,29.37
2018-11-23T08:30:17.293Z,28.47
2018-11-23T08:32:45.615Z,26.90
2018-11-23T08:35:14.114Z,28.63
2018-11-23T08:37:42.411Z,27.47
2018-11-23T08:40:16.514Z,26.70
2018-11-23T08:42:45.596Z,27.87
2018-11-23T08:45:15.420Z,26.70
2018-11-23T08:47:43.684Z,26.63
2018-11-23T08:50:14.442Z,26.50
2018-11-23T08:52:42.684Z,26.17
2018-11-23T08:55:11.941Z,26.87
2018-11-23T08:57:40.883Z,26.10
2018-11-23T09:00:16.124Z,34.13
2018-11-23T09:02:45.534Z,25.40
2018-11-23T09:05:14.147Z,24.57
2018-11-23T09:07:43.232Z,24.40
2018-11-23T09:10:13.933Z,24.23
2018-11-23T09:12:42.733Z,23.83
2018-11-23T09:15:12.535Z,23.70
2018-11-23T09:17:41.288Z,24.60
2018-11-23T09:20:10.783Z,23.33
2018-11-23T09:22:39.068Z,22.80
2018-11-23T09:25:09.482Z,26.47
2018-11-23T09:27:37.759Z,24.40
2018-11-23T09:30:10.487Z,23.20
2018-11-23T09:32:38.752Z,23.53
2018-11-23T09:35:08.016Z,22.57
2018-11-23T09:37:36.470Z,24.03
2018-11-23T09:40:06.275Z,23.20
2018-11-23T09:42:34.609Z,24.60
2018-11-23T09:45:02.960Z,22.47
2018-11-23T09:47:31.283Z,22.60
2018-11-23T09:49:59.599Z,22.70
2018-11-23T09:52:27.898Z,21.60
2018-11-23T09:54:56.217Z,21.70
2018-11-23T09:57:24.517Z,24.03
2018-11-23T09:59:52.804Z,24.27
2018-11-23T10:02:21.105Z,24.67
2018-11-23T10:04:49.420Z,23.20
2018-11-23T10:07:17.710Z,22.73
2018-11-23T10:09:45.995Z,23.10
2018-11-23T10:12:14.301Z,21.43
2018-11-23T10:14:42.591Z,21.73
2018-11-23T10:17:10.879Z,22.67
2018-11-23T10:19:39.279Z,22.10
2018-11-23T10:22:07.556Z,23.27
2018-11-23T10:24:35.832Z,23.57
2018-11-23T10:27:04.071Z,22.80
2018-11-23T10:29:32.353Z,23.50
2018-11-23T10:32:00.607Z,22.67
2018-11-23T10:34:28.903Z,23.53
2018-11-23T10:36:57.167Z,21.40
2018-11-23T10:39:25.423Z,23.73
2018-11-23T10:41:53.735Z,22.90
2018-11-23T10:44:22.035Z,22.97
2018-11-23T10:46:50.340Z,24.93
2018-11-23T10:49:18.599Z,26.43
2018-11-23T10:51:46.963Z,25.83
2018-11-23T10:54:15.231Z,29.43
2018-11-23T10:56:43.562Z,26.20
2018-11-23T10:59:11.819Z,23.97
2018-11-23T11:01:45.400Z,32.60
2018-11-23T11:04:19.093Z,24.37
2018-11-23T11:06:54.718Z,23.03
2018-11-23T11:09:22.974Z,24.10
2018-11-23T11:11:51.293Z,20.10
2018-11-23T11:14:19.560Z,21.23
2018-11-23T11:16:47.886Z,20.97
2018-11-23T11:19:16.141Z,19.47
2018-11-23T11:21:44.425Z,19.63
2018-11-23T11:24:12.766Z,24.90
2018-11-23T11:26:41.030Z,25.90
2018-11-23T11:29:09.316Z,20.70
2018-11-23T11:31:37.610Z,24.07
2018-11-23T11:34:05.911Z,19.70
2018-11-23T11:36:34.230Z,19.47
2018-11-23T11:39:02.606Z,18.77
2018-11-23T11:41:30.891Z,17.60
2018-11-23T11:43:59.180Z,15.53
2018-11-23T11:46:27.462Z,16.20
2018-11-23T11:48:55.767Z,15.30
2018-11-23T11:51:24.079Z,15.87
2018-11-23T11:53:52.315Z,15.03
2018-11-23T11:56:20.606Z,15.77
2018-11-23T11:58:48.973Z,14.27
2018-11-23T12:01:17.251Z,14.50
2018-11-23T12:03:45.664Z,13.40
2018-11-23T12:06:13.992Z,16.13
2018-11-23T12:08:42.386Z,14.00
2018-11-23T12:11:10.688Z,14.07
2018-11-23T12:13:38.975Z,14.07
2018-11-23T12:16:07.300Z,14.03
2018-11-23T12:18:35.554Z,12.17
2018-11-23T12:21:03.854Z,13.17
2018-11-23T12:23:32.152Z,14.57
2018-11-23T12:26:00.411Z,13.23
2018-11-23T12:28:28.763Z,13.70
2018-11-23T12:30:57.040Z,13.23
2018-11-23T12:33:25.318Z,15.53
2018-11-23T12:35:53.658Z,15.60
2018-11-23T12:38:21.991Z,11.33
2018-11-23T12:40:50.307Z,13.97
2018-11-23T12:43:18.603Z,12.43
2018-11-23T12:45:46.949Z,13.87
2018-11-23T12:48:15.311Z,12.07
2018-11-23T12:50:43.598Z,11.17
2018-11-23T12:53:11.883Z,11.97
2018-11-23T12:55:40.179Z,10.43
2018-11-23T12:58:08.494Z,11.70
2018-11-23T13:00:36.818Z,12.27
2018-11-23T13:03:05.657Z,14.33
2018-11-23T13:05:34.823Z,12.70
2018-11-23T13:08:04.659Z,11.43
2018-11-23T13:10:33.068Z,12.23
2018-11-23T13:13:02.007Z,10.70
2018-11-23T13:15:30.271Z,12.97
2018-11-23T13:17:59.302Z,10.57
2018-11-23T13:20:27.610Z,10.70
2018-11-23T13:22:55.926Z,8.80
2018-11-23T13:25:25.751Z,9.67
2018-11-23T13:27:54.118Z,10.40
2018-11-23T13:30:24.052Z,9.10
2018-11-23T13:32:52.477Z,9.63
2018-11-23T13:35:21.005Z,10.70
2018-11-23T13:37:49.374Z,11.13
2018-11-23T13:40:19.092Z,9.90
2018-11-23T13:42:47.926Z,11.30
2018-11-23T13:45:17.794Z,9.10
2018-11-23T13:47:46.109Z,10.10
2018-11-23T13:50:15.685Z,9.33
2018-11-23T13:52:45.003Z,10.10
2018-11-23T13:55:13.342Z,10.90
2018-11-23T13:57:41.641Z,11.03
2018-11-23T14:00:12.077Z,11.80
2018-11-23T14:02:40.361Z,12.50
2018-11-23T14:05:10.803Z,10.50
2018-11-23T14:07:39.154Z,12.33
2018-11-23T14:10:09.720Z,14.10
2018-11-23T14:12:38.140Z,14.20
2018-11-23T14:15:09.075Z,16.10
2018-11-23T14:17:37.409Z,14.20
2018-11-23T14:20:07.335Z,14.67
2018-11-23T14:22:35.690Z,14.93
2018-11-23T14:25:04.241Z,16.87
2018-11-23T14:27:32.561Z,16.00
2018-11-23T14:30:00.865Z,19.03
2018-11-23T14:32:29.143Z,17.03
2018-11-23T14:34:57.471Z,16.80
2018-11-23T14:37:25.789Z,14.87
2018-11-23T14:39:54.130Z,14.67
2018-11-23T14:42:22.788Z,16.03
2018-11-23T14:44:54.665Z,15.50
2018-11-23T14:47:22.971Z,15.53
2018-11-23T14:49:51.252Z,16.20
2018-11-23T14:52:20.576Z,17.43
2018-11-23T14:54:48.879Z,16.43
2018-11-23T14:57:17.174Z,17.20
2018-11-23T14:59:45.545Z,18.20
2018-11-23T15:02:13.863Z,19.10
2018-11-23T15:04:42.194Z,18.23
2018-11-23T15:07:10.463Z,16.77
2018-11-23T15:09:39.806Z,19.53
2018-11-23T15:12:08.115Z,20.27
2018-11-23T15:14:36.449Z,14.93
2018-11-23T15:17:04.865Z,15.00
2018-11-23T15:19:33.161Z,14.37
2018-11-23T15:22:01.540Z,15.60
2018-11-23T15:24:29.830Z,13.33
2018-11-23T15:26:58.091Z,13.20
2018-11-23T15:29:26.387Z,15.67
2018-11-23T15:31:54.698Z,13.13
2018-11-23T15:34:23.005Z,14.50
2018-11-23T15:36:51.344Z,15.80
2018-11-23T15:39:19.649Z,15.47
2018-11-23T15:41:47.954Z,18.77
2018-11-23T15:44:16.340Z,15.70
2018-11-23T15:46:44.627Z,16.30
2018-11-23T15:49:12.889Z,16.90
2018-11-23T15:51:41.154Z,16.53
2018-11-23T15:54:09.416Z,14.27
2018-11-23T15:56:37.665Z,15.10
2018-11-23T15:59:06.042Z,36.63
2018-11-23T16:01:34.337Z,17.87
2018-11-23T16:04:02.663Z,15.47
2018-11-23T16:06:30.989Z,12.10
2018-11-23T16:08:59.277Z,11.50
2018-11-23T16:11:27.597Z,9.57
2018-11-23T16:13:55.881Z,9.40
2018-11-23T16:16:24.169Z,10.17
2018-11-23T16:18:52.680Z,9.57
2018-11-23T16:21:20.975Z,10.10
2018-11-23T16:23:49.269Z,10.20
2018-11-23T16:26:17.645Z,11.50
2018-11-23T16:28:45.923Z,10.07
2018-11-23T16:31:14.251Z,9.50
2018-11-23T16:33:42.505Z,8.77
2018-11-23T16:36:10.761Z,9.70
2018-11-23T16:38:39.098Z,11.70
2018-11-23T16:41:07.461Z,9.70
2018-11-23T16:43:35.731Z,9.80
2018-11-23T16:46:04.083Z,10.30
2018-11-23T16:48:32.377Z,9.10
2018-11-23T16:51:00.610Z,9.10
2018-11-23T16:53:28.869Z,9.80
2018-11-23T16:55:58.225Z,9.40
2018-11-23T16:58:26.514Z,14.20
2018-11-23T17:00:54.766Z,12.40
2018-11-23T17:03:23.787Z,11.50
2018-11-23T17:05:53.352Z,10.57
2018-11-23T17:08:21.663Z,8.73
2018-11-23T17:10:49.930Z,10.63
2018-11-23T17:13:18.319Z,9.93
2018-11-23T17:15:46.661Z,10.13
2018-11-23T17:18:15.033Z,9.83
2018-11-23T17:20:43.315Z,9.63
2018-11-23T17:23:13.189Z,10.00
2018-11-23T17:25:41.563Z,9.80
2018-11-23T17:28:10.823Z,10.20
2018-11-23T17:30:39.228Z,9.80
2018-11-23T17:33:07.478Z,9.40
2018-11-23T17:35:35.977Z,11.30
2018-11-23T17:38:04.286Z,11.83
2018-11-23T17:40:34.476Z,19.70
2018-11-23T17:43:02.810Z,11.83
2018-11-23T17:45:32.278Z,12.30
2018-11-23T17:48:00.757Z,12.00
2018-11-23T17:50:32.187Z,17.40
2018-11-23T17:53:00.658Z,18.40
2018-11-23T17:55:29.118Z,18.17
2018-11-23T17:57:57.637Z,16.20
2018-11-23T18:00:27.283Z,19.57
2018-11-23T18:02:56.212Z,17.90
2018-11-23T18:05:25.490Z,17.50
2018-11-23T18:07:53.829Z,20.87
2018-11-23T18:10:23.534Z,21.00
2018-11-23T18:12:52.306Z,16.77
2018-11-23T18:15:22.767Z,14.70
2018-11-23T18:17:51.844Z,15.13
2018-11-23T18:20:21.575Z,14.20
2018-11-23T18:22:50.562Z,13.17
2018-11-23T18:25:20.451Z,15.60
2018-11-23T18:27:49.139Z,15.30
2018-11-23T18:30:17.398Z,13.70
2018-11-23T18:32:45.729Z,13.93
2018-11-23T18:35:14.205Z,14.90
2018-11-23T18:37:42.502Z,13.03
2018-11-23T18:40:12.000Z,12.90
2018-11-23T18:42:40.320Z,13.60
2018-11-23T18:45:12.017Z,13.03
2018-11-23T18:47:40.927Z,14.07
2018-11-23T18:50:10.492Z,13.37
2018-11-23T18:52:38.846Z,13.47
2018-11-23T18:55:07.788Z,14.60
2018-11-23T18:57:36.077Z,14.27
2018-11-23T19:00:04.780Z,14.83
2018-11-23T19:02:33.143Z,13.50
2018-11-23T19:05:01.429Z,14.83
2018-11-23T19:07:29.723Z,15.90
2018-11-23T19:09:58.063Z,14.50
2018-11-23T19:12:26.374Z,15.10
2018-11-23T19:14:54.641Z,17.37
2018-11-23T19:17:22.960Z,16.13
2018-11-23T19:19:51.328Z,16.70
2018-11-23T19:22:19.624Z,18.20
2018-11-23T19:24:48.006Z,16.60
2018-11-23T19:27:16.301Z,16.80
2018-11-23T19:29:44.625Z,16.57
2018-11-23T19:32:12.907Z,18.77
2018-11-23T19:34:41.229Z,18.90
2018-11-23T19:37:09.531Z,18.33
2018-11-23T19:39:37.807Z,19.07
2018-11-23T19:42:06.164Z,21.13
2018-11-23T19:44:34.549Z,20.60
2018-11-23T19:47:02.860Z,23.83
2018-11-23T19:49:31.138Z,21.57
2018-11-23T19:51:59.480Z,19.10
2018-11-23T19:54:27.836Z,19.60
2018-11-23T19:56:56.150Z,18.77
2018-11-23T19:59:24.531Z,19.30
2018-11-23T20:01:52.858Z,18.30
2018-11-23T20:04:21.173Z,19.00
2018-11-23T20:06:49.548Z,17.87
2018-11-23T20:09:17.875Z,20.37
2018-11-23T20:11:46.204Z,20.40
2018-11-23T20:14:14.461Z,19.07
2018-11-23T20:16:42.714Z,19.90
2018-11-23T20:19:10.986Z,19.00
2018-11-23T20:21:39.282Z,19.33
2018-11-23T20:24:07.677Z,20.50
2018-11-23T20:26:36.011Z,19.67
2018-11-23T20:29:04.295Z,18.57
2018-11-23T20:31:32.639Z,18.33
2018-11-23T20:34:00.947Z,17.30
2018-11-23T20:36:29.204Z,18.33
2018-11-23T20:38:57.606Z,18.00
2018-11-23T20:41:25.892Z,17.97
2018-11-23T20:43:54.334Z,16.97
2018-11-23T20:46:22.741Z,18.40
2018-11-23T20:48:51.112Z,17.60
2018-11-23T20:51:19.618Z,17.87
2018-11-23T20:53:48.037Z,16.70
2018-11-23T20:56:16.504Z,18.60
2018-11-23T20:58:44.858Z,20.40
2018-11-23T21:01:13.160Z,19.10
2018-11-23T21:03:41.728Z,18.10
2018-11-23T21:06:10.145Z,18.37
2018-11-23T21:08:38.465Z,17.00
2018-11-23T21:11:06.845Z,14.97
2018-11-23T21:13:35.233Z,16.10
2018-11-23T21:16:03.666Z,17.03
2018-11-23T21:18:32.035Z,19.03
2018-11-23T21:21:00.414Z,21.17
2018-11-23T21:23:28.909Z,17.73
2018-11-23T21:25:57.319Z,18.03
2018-11-23T21:28:25.646Z,17.43
2018-11-23T21:30:54.099Z,17.70
2018-11-23T21:33:22.511Z,16.33
2018-11-23T21:35:50.898Z,16.10
2018-11-23T21:38:19.309Z,15.43
2018-11-23T21:40:47.649Z,16.30
2018-11-23T21:43:16.117Z,16.93
2018-11-23T21:45:44.460Z,17.00
2018-11-23T21:48:12.888Z,15.90
2018-11-23T21:50:41.283Z,18.70
2018-11-23T21:53:09.775Z,19.83
2018-11-23T21:55:38.122Z,18.80
2018-11-23T21:58:06.458Z,18.90
2018-11-23T22:00:34.793Z,18.80
2018-11-23T22:03:03.151Z,19.27
2018-11-23T22:05:31.467Z,16.77
2018-11-23T22:07:59.868Z,16.23
2018-11-23T22:10:28.181Z,15.67
2018-11-23T22:12:56.507Z,16.27
2018-11-23T22:15:25.231Z,17.87
2018-11-23T22:17:54.757Z,15.40
2018-11-23T22:20:23.634Z,16.17
2018-11-23T22:22:51.917Z,15.93
2018-11-23T22:25:21.216Z,16.10
2018-11-23T22:27:49.592Z,18.10
2018-11-23T22:30:26.568Z,15.70
2018-11-23T22:32:55.021Z,14.60
2018-11-23T22:35:25.792Z,15.40
2018-11-23T22:37:54.233Z,15.60
2018-11-23T22:40:22.661Z,17.27
2018-11-23T22:42:53.270Z,17.37
2018-11-23T22:45:21.705Z,16.87
2018-11-23T22:47:50.059Z,14.40
2018-11-23T22:50:19.554Z,16.10
2018-11-23T22:52:48.020Z,13.80
2018-11-23T22:55:16.952Z,15.33
2018-11-23T22:57:45.321Z,15.23
2018-11-23T23:00:20.412Z,15.90
2018-11-23T23:02:49.243Z,16.43
2018-11-23T23:05:18.322Z,15.67
2018-11-23T23:07:46.687Z,14.10
2018-11-23T23:10:15.024Z,16.47
2018-11-23T23:12:43.312Z,14.03
2018-11-23T23:15:12.202Z,15.30
2018-11-23T23:17:41.135Z,15.67
2018-11-23T23:20:10.930Z,14.67
2018-11-23T23:22:39.336Z,14.03
2018-11-23T23:25:08.869Z,15.30
2018-11-23T23:27:37.200Z,16.30
2018-11-23T23:30:14.172Z,16.53
2018-11-23T23:32:42.548Z,17.23
2018-11-23T23:35:11.847Z,16.93
2018-11-23T23:37:40.470Z,14.90
2018-11-23T23:40:12.898Z,16.13
2018-11-23T23:42:41.234Z,16.63
2018-11-23T23:45:10.573Z,16.63
2018-11-23T23:47:38.873Z,17.60
2018-11-23T23:50:09.949Z,16.53
2018-11-23T23:52:38.237Z,17.93
2018-11-23T23:55:07.594Z,18.33
2018-11-23T23:57:35.839Z,19.53
